LHX88F LFBD-EDDM
Flight info
| Callsign | LHX88F |
|---|---|
| Flight time | N/A |
| Altitude | 38000 |
| Route | OBLOC DCT SECHE DCT NARAK DCT DITEV DCT MEN DCT NINUN DCT LATAM DCT ETREK DCT LTP DCT SOPLO DCT OMASI DCT KINNI DCT LAMUR DCT KORED DCT NUNRI T103 BETOS BETOS1A |
| Aircraft | A319/M-SDE2E3FGIJ1LORWXY/HB1 |
Departure
| Time | 2026-04-30 14:48 |
|---|---|
| Airport | Bordeaux–Mérignac Airport (LFBD) |
Arrival
| Time | N/A |
|---|---|
| Airport | Munich Airport (EDDM) |
| Time | Latitude | Longitude | Altitude | Speed | Heading |
|---|---|---|---|---|---|
| 2026-04-30 14:18 | 44.83124 | -0.70441 | 165 ft | 0 kts | 113° |
| 2026-04-30 14:38 | 44.83125 | -0.70445 | 166 ft | 3 kts | 113° |
| 2026-04-30 14:39 | 44.83136 | -0.70478 | 166 ft | 4 kts | 120° |
| 2026-04-30 14:39 | 44.83148 | -0.70503 | 166 ft | 4 kts | 122° |
| 2026-04-30 14:39 | 44.83155 | -0.70534 | 166 ft | 4 kts | 73° |
| 2026-04-30 14:40 | 44.83144 | -0.70561 | 166 ft | 0 kts | 45° |
| 2026-04-30 14:42 | 44.83149 | -0.70555 | 166 ft | 2 kts | 45° |
| 2026-04-30 14:43 | 44.83161 | -0.70537 | 166 ft | 3 kts | 45° |
| 2026-04-30 14:43 | 44.83182 | -0.70508 | 166 ft | 5 kts | 45° |
| 2026-04-30 14:43 | 44.83211 | -0.70468 | 166 ft | 7 kts | 45° |
| 2026-04-30 14:43 | 44.83252 | -0.70410 | 166 ft | 10 kts | 45° |
| 2026-04-30 14:44 | 44.83305 | -0.70335 | 166 ft | 12 kts | 45° |
| 2026-04-30 14:44 | 44.83361 | -0.70327 | 167 ft | 7 kts | 317° |
| 2026-04-30 14:44 | 44.83403 | -0.70317 | 167 ft | 8 kts | 42° |
| 2026-04-30 14:44 | 44.83451 | -0.70248 | 167 ft | 11 kts | 46° |
| 2026-04-30 14:45 | 44.83511 | -0.70161 | 166 ft | 13 kts | 46° |
| 2026-04-30 14:45 | 44.83578 | -0.70064 | 166 ft | 15 kts | 46° |
| 2026-04-30 14:45 | 44.83658 | -0.70005 | 166 ft | 11 kts | 352° |
| 2026-04-30 14:45 | 44.83719 | -0.70041 | 162 ft | 11 kts | 336° |
| 2026-04-30 14:46 | 44.83789 | -0.70096 | 164 ft | 11 kts | 320° |
| 2026-04-30 14:46 | 44.83812 | -0.70181 | 166 ft | 6 kts | 237° |
| 2026-04-30 14:46 | 44.83800 | -0.70197 | 165 ft | 0 kts | 225° |
| 2026-04-30 14:47 | 44.83797 | -0.70202 | 164 ft | 3 kts | 225° |
| 2026-04-30 14:47 | 44.83746 | -0.70277 | 164 ft | 30 kts | 226° |
| 2026-04-30 14:47 | 44.83376 | -0.70803 | 169 ft | 115 kts | 225° |
| 2026-04-30 14:47 | 44.82675 | -0.71807 | 358 ft | 160 kts | 224° |
| 2026-04-30 14:48 | 44.81919 | -0.72890 | 1271 ft | 153 kts | 226° |
| 2026-04-30 14:48 | 44.81174 | -0.73960 | 2151 ft | 153 kts | 226° |
| 2026-04-30 14:48 | 44.80441 | -0.75038 | 2969 ft | 153 kts | 227° |
| 2026-04-30 14:48 | 44.79698 | -0.76124 | 3648 ft | 162 kts | 224° |
| 2026-04-30 14:49 | 44.78844 | -0.77304 | 4167 ft | 181 kts | 223° |
| 2026-04-30 14:49 | 44.77906 | -0.78605 | 4694 ft | 199 kts | 223° |
| 2026-04-30 14:49 | 44.76773 | -0.79915 | 5097 ft | 227 kts | 207° |
| 2026-04-30 14:49 | 44.75168 | -0.80578 | 5650 ft | 255 kts | 187° |
| 2026-04-30 14:50 | 44.71681 | -0.79209 | 7579 ft | 276 kts | 144° |
| 2026-04-30 14:50 | 44.70413 | -0.77146 | 8634 ft | 285 kts | 121° |
| 2026-04-30 14:51 | 44.69331 | -0.71720 | 10835 ft | 290 kts | 113° |
| 2026-04-30 14:51 | 44.68408 | -0.69189 | 11728 ft | 297 kts | 126° |
| 2026-04-30 14:51 | 44.66296 | -0.63838 | 13071 ft | 329 kts | 107° |
| 2026-04-30 14:52 | 44.66024 | -0.60609 | 14004 ft | 338 kts | 92° |
| 2026-04-30 14:52 | 44.66060 | -0.53938 | 15717 ft | 345 kts | 92° |
| 2026-04-30 14:52 | 44.66071 | -0.50598 | 16539 ft | 348 kts | 92° |
| 2026-04-30 14:53 | 44.66078 | -0.43719 | 18204 ft | 356 kts | 92° |
| 2026-04-30 14:53 | 44.66081 | -0.40223 | 18936 ft | 360 kts | 92° |
| 2026-04-30 14:54 | 44.66082 | -0.33124 | 20377 ft | 367 kts | 92° |
| 2026-04-30 14:54 | 44.66082 | -0.25892 | 21823 ft | 374 kts | 92° |
| 2026-04-30 14:55 | 44.66072 | -0.18525 | 23233 ft | 381 kts | 92° |
| 2026-04-30 14:55 | 44.66066 | -0.14789 | 23886 ft | 384 kts | 92° |
| 2026-04-30 14:55 | 44.66057 | -0.07212 | 25023 ft | 392 kts | 92° |
| 2026-04-30 14:56 | 44.66045 | 0.00506 | 26072 ft | 399 kts | 92° |
| 2026-04-30 14:56 | 44.66015 | 0.08421 | 27019 ft | 410 kts | 92° |
| 2026-04-30 14:57 | 44.65998 | 0.12436 | 27517 ft | 414 kts | 92° |
| 2026-04-30 14:57 | 44.65959 | 0.20588 | 28509 ft | 421 kts | 92° |
| 2026-04-30 14:58 | 44.65919 | 0.28880 | 29484 ft | 428 kts | 92° |
| 2026-04-30 14:58 | 44.65900 | 0.33083 | 29963 ft | 432 kts | 92° |
| 2026-04-30 14:58 | 44.65860 | 0.41590 | 30763 ft | 439 kts | 92° |
| 2026-04-30 14:59 | 44.65805 | 0.50236 | 31500 ft | 447 kts | 92° |
| 2026-04-30 15:00 | 44.65695 | 0.63376 | 32911 ft | 450 kts | 92° |
| 2026-04-30 15:00 | 44.65621 | 0.72188 | 33857 ft | 452 kts | 92° |
| 2026-04-30 15:01 | 44.65541 | 0.81037 | 34724 ft | 453 kts | 92° |
| 2026-04-30 15:01 | 44.65513 | 0.83966 | 35021 ft | 452 kts | 92° |
| 2026-04-30 15:01 | 44.65410 | 0.94283 | 35981 ft | 452 kts | 92° |
| 2026-04-30 15:02 | 44.65362 | 0.98700 | 36104 ft | 452 kts | 92° |
| 2026-04-30 15:02 | 44.65311 | 1.03116 | 36126 ft | 452 kts | 92° |
| 2026-04-30 15:03 | 44.65151 | 1.16293 | 37162 ft | 451 kts | 92° |
| 2026-04-30 15:03 | 44.65031 | 1.25088 | 37927 ft | 450 kts | 92° |
| 2026-04-30 15:04 | 44.64905 | 1.33874 | 38131 ft | 448 kts | 92° |
| 2026-04-30 15:04 | 44.64712 | 1.46955 | 38132 ft | 446 kts | 92° |
| 2026-04-30 15:06 | 44.64353 | 1.68733 | 38131 ft | 446 kts | 92° |
| 2026-04-30 15:07 | 44.64031 | 1.86158 | 38132 ft | 447 kts | 92° |
| 2026-04-30 15:08 | 44.63694 | 2.03598 | 38146 ft | 446 kts | 92° |
| 2026-04-30 15:09 | 44.63264 | 2.23893 | 38155 ft | 446 kts | 92° |
| 2026-04-30 15:10 | 44.62857 | 2.41312 | 38164 ft | 446 kts | 92° |
| 2026-04-30 15:11 | 44.62214 | 2.67429 | 38163 ft | 446 kts | 92° |
| 2026-04-30 15:13 | 44.61624 | 2.89127 | 38167 ft | 446 kts | 92° |
| 2026-04-30 15:14 | 44.62311 | 3.19331 | 38181 ft | 444 kts | 67° |
| 2026-04-30 15:17 | 44.75703 | 3.53383 | 38172 ft | 443 kts | 59° |
| 2026-04-30 15:19 | 44.87688 | 3.83688 | 38177 ft | 442 kts | 60° |